Palmyra, Tennessee
Current Conditions -  °F | °C
As of 2:52 AM on Saturday 29 Nov 2014 (Local Time) from KCKV Reporting Station
Broken Clouds Broken Clouds  
Wind Chill: 37°   Ceiling: 4100
Heat Index: 43°   Visibility: 10mi
Dew Point: 26°   Wind: 12mph
Humidity: 51%   Direction: 180°S
Pressure: 30.08"   Gusts: NA
Location:  36.44°N, 87.49°W
Report Text: KCKV 290852Z AUTO 18010KT 10SM BKN041 06/M03 A3008 RMK AO2 SLP186 T00611033 58003
Loading
Personal Weather Stations






























Interactive Weather Map New forecast layout! Learn more

10-Day Weather Forecast

Advertisements
Track Severe Weather on mobile